Time;durP1;ratioP1;P1;durP2;ratioP2;P2;SDS_P1;SDS_P2;PMS_P1;PMS_P2;Temp;Humidity;BMP_temperature;BMP_pressure;BME280_temperature;BME280_humidity;BME280_pressure;Samples;Min_cycle;Max_cycle;Signal;HPM_P1;HPM_P2
2023/06/27 00:00:27;;;;;;;1.30;1.30;;;;;;;16.63;100.00;90948.13;5034882;28;20045;-63
2023/06/27 00:02:53;;;;;;;1.67;1.58;;;;;;;16.58;100.00;90944.94;5035140;28;20487;-63
2023/06/27 00:05:18;;;;;;;2.53;2.33;;;;;;;16.46;100.00;90953.81;5035004;28;20037;-63
2023/06/27 00:07:44;;;;;;;1.92;1.83;;;;;;;16.52;100.00;90946.28;5035059;28;20036;-63
2023/06/27 00:10:10;;;;;;;5.25;1.45;;;;;;;16.46;100.00;90941.19;5035030;28;20029;-63
2023/06/27 00:12:37;;;;;;;1.17;1.17;;;;;;;16.44;100.00;90948.81;5035147;28;20034;-63
2023/06/27 00:15:05;;;;;;;1.30;1.30;;;;;;;16.47;100.00;90945.44;5034953;28;20040;-63
2023/06/27 00:17:33;;;;;;;4.10;1.48;;;;;;;16.44;100.00;90938.06;5034798;28;20040;-63
2023/06/27 00:19:59;;;;;;;2.40;2.15;;;;;;;16.44;100.00;90939.97;5034876;28;20025;-63
2023/06/27 00:22:26;;;;;;;0.80;0.80;;;;;;;16.50;100.00;90937.81;5034647;28;20041;-63
2023/06/27 00:24:52;;;;;;;1.23;1.20;;;;;;;16.45;100.00;90936.94;5034655;28;20033;-63
2023/06/27 00:27:17;;;;;;;1.77;1.67;;;;;;;16.36;100.00;90936.28;5016844;28;20029;-63
2023/06/27 00:29:43;;;;;;;1.10;1.10;;;;;;;16.16;100.00;90929.25;5034560;28;20471;-63
2023/06/27 00:32:08;;;;;;;1.38;1.27;;;;;;;16.06;100.00;90945.81;5034377;28;20033;-64
2023/06/27 00:34:34;;;;;;;1.35;1.33;;;;;;;15.99;100.00;90943.72;5034656;28;20026;-64
2023/06/27 00:36:59;;;;;;;1.58;1.48;;;;;;;15.99;100.00;90938.34;5034344;28;20036;-64
2023/06/27 00:39:25;;;;;;;1.85;1.73;;;;;;;15.92;100.00;90940.81;5034320;28;20033;-64
2023/06/27 00:41:53;;;;;;;1.65;1.55;;;;;;;15.86;100.00;90942.97;5034277;28;20029;-63
2023/06/27 00:44:19;;;;;;;1.33;1.23;;;;;;;15.72;100.00;90945.25;5034367;28;20479;-64
2023/06/27 00:46:47;;;;;;;2.03;1.83;;;;;;;15.64;100.00;90940.81;5034271;28;20041;-63
2023/06/27 00:49:13;;;;;;;2.38;2.17;;;;;;;15.48;100.00;90945.28;5033349;28;20140;-63
2023/06/27 00:51:42;;;;;;;2.03;1.92;;;;;;;15.36;100.00;90953.31;5034561;28;20507;-63
2023/06/27 00:54:08;;;;;;;2.35;2.00;;;;;;;15.17;100.00;90949.31;5033922;28;20041;-64
2023/06/27 00:56:35;;;;;;;3.08;1.77;;;;;;;15.08;100.00;90940.59;5034270;28;20044;-64
2023/06/27 00:59:01;;;;;;;3.63;1.45;;;;;;;14.96;100.00;90954.75;5034250;28;20033;-63
2023/06/27 01:01:30;;;;;;;1.05;1.05;;;;;;;14.88;100.00;90947.63;5033837;28;20109;-63
2023/06/27 01:03:56;;;;;;;1.40;1.30;;;;;;;14.78;100.00;90945.38;5033807;28;20380;-63
2023/06/27 01:06:27;;;;;;;1.85;1.75;;;;;;;14.67;100.00;90939.69;5034082;28;20510;-63
2023/06/27 01:08:59;;;;;;;2.88;2.63;;;;;;;14.65;100.00;90941.91;5034173;28;20083;-64
2023/06/27 01:11:30;;;;;;;1.67;1.57;;;;;;;14.69;100.00;90944.72;5033645;28;20064;-64
2023/06/27 01:13:57;;;;;;;1.35;1.25;;;;;;;14.66;100.00;90946.13;5033828;28;20037;-64
2023/06/27 01:16:29;;;;;;;1.65;1.55;;;;;;;14.67;100.00;90952.25;5033858;28;20029;-64
2023/06/27 01:18:56;;;;;;;1.58;1.50;;;;;;;14.68;100.00;90945.81;5033969;28;20403;-64
2023/06/27 01:21:25;;;;;;;1.20;1.15;;;;;;;14.70;100.00;90948.16;5033346;28;20111;-63
2023/06/27 01:23:58;;;;;;;1.08;1.08;;;;;;;14.68;100.00;90941.25;5033567;28;20495;-64
2023/06/27 01:26:24;;;;;;;2.83;1.35;;;;;;;14.67;100.00;90938.88;5033490;28;20037;-63
2023/06/27 01:28:50;;;;;;;2.08;1.88;;;;;;;14.62;100.00;90939.88;5015692;28;20087;-63
2023/06/27 01:31:33;;;;;;;1.77;1.55;;;;;;;14.55;100.00;90941.56;5033345;28;20116;-64
2023/06/27 01:33:58;;;;;;;;;;;;;;;14.57;100.00;90942.00;5033877;28;20081;-65
2023/06/27 01:36:40;;;;;;;1.37;1.27;;;;;;;14.48;100.00;90931.38;5033634;28;19948;-64
2023/06/27 01:39:10;;;;;;;4.22;2.65;;;;;;;14.49;100.00;90932.16;5033291;28;20084;-63
2023/06/27 01:41:38;;;;;;;1.80;1.70;;;;;;;14.52;100.00;90934.97;5033118;28;20026;-63
2023/06/27 01:44:06;;;;;;;1.45;1.38;;;;;;;14.48;100.00;90928.69;5033385;28;20037;-64
2023/06/27 01:46:32;;;;;;;2.30;2.13;;;;;;;14.50;100.00;90931.81;5173678;22;20073;-66
2023/06/27 01:48:59;;;;;;;2.65;2.45;;;;;;;14.47;100.00;90932.50;5033387;28;20033;-66
2023/06/27 01:51:25;;;;;;;2.58;2.03;;;;;;;14.48;100.00;90935.94;5033545;28;20513;-66
2023/06/27 01:53:50;;;;;;;15.45;3.25;;;;;;;14.48;100.00;90928.69;5033307;28;20104;-66
2023/06/27 01:56:17;;;;;;;1.30;1.20;;;;;;;14.56;100.00;90927.06;5033116;28;20052;-67
2023/06/27 01:58:42;;;;;;;2.72;1.63;;;;;;;14.65;100.00;90933.88;5033747;28;20030;-66
2023/06/27 02:01:08;;;;;;;0.93;0.93;;;;;;;14.80;100.00;90931.66;5033113;28;20188;-66
2023/06/27 02:03:34;;;;;;;1.00;1.00;;;;;;;14.91;100.00;90930.09;5033383;28;20080;-67
2023/06/27 02:06:00;;;;;;;1.95;1.85;;;;;;;14.97;100.00;90932.22;5033129;28;20483;-66
2023/06/27 02:08:25;;;;;;;1.88;1.58;;;;;;;15.00;100.00;90933.47;5033283;28;20029;-66
2023/06/27 02:10:51;;;;;;;3.88;2.60;;;;;;;15.03;100.00;90932.78;5033358;28;20025;-66
2023/06/27 02:13:16;;;;;;;1.73;1.55;;;;;;;15.04;100.00;90929.00;5032884;28;20148;-66
2023/06/27 02:15:41;;;;;;;1.45;1.35;;;;;;;14.94;100.00;90932.09;5032965;28;20077;-66
2023/06/27 02:18:07;;;;;;;3.47;2.00;;;;;;;15.00;100.00;90930.00;5032831;28;20475;-66
2023/06/27 02:20:32;;;;;;;2.50;1.52;;;;;;;15.04;100.00;90934.34;5032784;28;20492;-66
2023/06/27 02:22:58;;;;;;;1.63;1.52;;;;;;;15.10;100.00;90943.72;5032665;28;20104;-66
2023/06/27 02:25:23;;;;;;;1.60;1.50;;;;;;;15.18;100.00;90940.16;5014745;28;20067;-67
2023/06/27 02:27:49;;;;;;;1.90;1.80;;;;;;;15.17;100.00;90940.50;5032952;28;20018;-67
2023/06/27 02:30:15;;;;;;;2.20;1.23;;;;;;;15.15;100.00;90940.84;5032731;28;20033;-66
2023/06/27 02:32:40;;;;;;;2.08;1.88;;;;;;;15.10;100.00;90933.00;5032657;28;20032;-67
2023/06/27 02:35:06;;;;;;;1.38;1.17;;;;;;;15.02;100.00;90936.59;5032609;28;20029;-67
2023/06/27 02:37:31;;;;;;;1.27;1.20;;;;;;;15.08;100.00;90940.59;5032697;28;20021;-67
2023/06/27 02:39:57;;;;;;;2.38;2.17;;;;;;;15.23;100.00;90947.19;5032702;28;20040;-66
2023/06/27 02:42:22;;;;;;;2.10;1.92;;;;;;;15.29;100.00;90946.59;5032370;28;20022;-66
2023/06/27 02:44:48;;;;;;;2.15;1.30;;;;;;;15.32;100.00;90936.34;5032186;28;20036;-67
2023/06/27 02:47:14;;;;;;;1.55;1.45;;;;;;;15.34;100.00;90936.81;5032590;28;20025;-66
2023/06/27 02:49:42;;;;;;;3.38;2.60;;;;;;;15.33;100.00;90937.91;5032424;28;20032;-67
2023/06/27 02:52:07;;;;;;;2.60;1.45;;;;;;;15.31;100.00;90932.13;5032791;28;20497;-66
2023/06/27 02:54:33;;;;;;;1.00;1.00;;;;;;;15.16;100.00;90931.69;5032478;28;20113;-66
2023/06/27 02:56:58;;;;;;;1.20;1.10;;;;;;;15.09;100.00;90933.34;5032142;28;20056;-66
2023/06/27 02:59:23;;;;;;;1.40;1.30;;;;;;;15.08;100.00;90931.78;5032086;28;20113;-66
2023/06/27 03:01:49;;;;;;;2.35;1.70;;;;;;;15.05;100.00;90935.13;5014359;28;20471;-66
2023/06/27 03:04:20;;;;;;;1.52;1.42;;;;;;;15.08;100.00;90937.13;5032065;28;20034;-66
2023/06/27 03:06:45;;;;;;;2.53;1.60;;;;;;;15.04;100.00;90933.56;5032034;28;20178;-66
2023/06/27 03:09:11;;;;;;;1.48;1.38;;;;;;;14.96;100.00;90932.56;5032131;28;20516;-66
2023/06/27 03:11:36;;;;;;;2.22;1.90;;;;;;;14.97;100.00;90932.22;5032065;28;20037;-66
2023/06/27 03:14:02;;;;;;;1.42;1.33;;;;;;;15.06;100.00;90928.66;5032435;28;20033;-66
2023/06/27 03:16:27;;;;;;;1.70;1.60;;;;;;;15.05;100.00;90927.88;5031846;28;20388;-66
2023/06/27 03:18:52;;;;;;;2.20;2.10;;;;;;;15.02;100.00;90936.59;5032008;28;20021;-66
2023/06/27 03:21:19;;;;;;;2.15;1.83;;;;;;;14.94;100.00;90932.09;5031944;28;20030;-66
2023/06/27 03:23:44;;;;;;;3.10;2.17;;;;;;;14.90;100.00;90945.41;5014106;28;20040;-66
2023/06/27 03:26:10;;;;;;;1.10;1.10;;;;;;;14.83;100.00;90933.66;5031645;28;20025;-66
2023/06/27 03:28:35;;;;;;;1.65;1.55;;;;;;;14.81;100.00;90949.28;5032074;28;20507;-66
2023/06/27 03:31:00;;;;;;;1.88;1.77;;;;;;;14.82;100.00;90948.16;5031825;28;20036;-66
2023/06/27 03:33:26;;;;;;;1.10;1.08;;;;;;;14.83;100.00;90949.72;5032040;28;20026;-66
2023/06/27 03:35:51;;;;;;;1.63;1.23;;;;;;;14.86;100.00;90949.88;5031586;28;20025;-66
2023/06/27 03:38:17;;;;;;;1.42;1.33;;;;;;;14.87;100.00;90942.59;5031946;28;20517;-66
2023/06/27 03:40:43;;;;;;;1.85;1.73;;;;;;;14.82;100.00;90948.94;5031994;28;20088;-66
2023/06/27 03:43:10;;;;;;;3.92;1.83;;;;;;;14.88;100.00;90947.63;5031683;28;20453;-66
2023/06/27 03:45:36;;;;;;;1.08;1.08;;;;;;;14.88;100.00;90942.28;5031500;28;20053;-66
2023/06/27 03:48:01;;;;;;;1.77;1.67;;;;;;;14.90;100.00;90950.75;5031881;28;20107;-66
2023/06/27 03:50:27;;;;;;;1.95;1.85;;;;;;;14.87;100.00;90948.75;5031617;28;20481;-66
2023/06/27 03:52:52;;;;;;;1.75;1.65;;;;;;;14.90;100.00;90949.97;5031868;28;20053;-66
2023/06/27 03:55:18;;;;;;;2.70;2.35;;;;;;;14.94;100.00;90951.63;5013774;28;20087;-66
2023/06/27 03:57:43;;;;;;;1.35;1.30;;;;;;;14.99;100.00;90945.31;5031859;28;20029;-66
2023/06/27 04:00:10;;;;;;;1.30;1.20;;;;;;;15.07;100.00;90947.06;5031495;28;20033;-66
2023/06/27 04:02:36;;;;;;;11.57;3.13;;;;;;;15.13;100.00;90945.72;5031727;28;20080;-66
2023/06/27 04:05:02;;;;;;;2.20;2.00;;;;;;;15.18;100.00;90942.84;5031698;28;20044;-66
2023/06/27 04:07:27;;;;;;;3.13;1.40;;;;;;;15.19;100.00;90952.44;5031463;28;20418;-66
2023/06/27 04:09:52;;;;;;;1.33;1.23;;;;;;;15.23;100.00;90955.22;5031775;28;20057;-66
2023/06/27 04:12:18;;;;;;;3.42;2.72;;;;;;;15.27;100.00;90953.44;5031374;28;20030;-66
2023/06/27 04:14:43;;;;;;;1.80;1.67;;;;;;;15.25;100.00;90948.41;5031735;28;20029;-66
2023/06/27 04:17:08;;;;;;;5.22;2.67;;;;;;;15.33;100.00;90954.00;5031428;28;20112;-66
2023/06/27 04:19:34;;;;;;;0.90;0.90;;;;;;;15.37;100.00;90958.34;5031397;28;20516;-66
2023/06/27 04:21:59;;;;;;;1.95;1.70;;;;;;;15.37;100.00;90960.25;5031358;28;20026;-66
2023/06/27 04:24:24;;;;;;;2.65;1.52;;;;;;;15.41;100.00;90958.44;5033099;28;20502;-67
2023/06/27 04:26:50;;;;;;;1.83;1.73;;;;;;;15.53;100.00;90955.75;5034938;28;20091;-66
2023/06/27 04:29:15;;;;;;;1.73;1.63;;;;;;;15.61;100.00;90960.22;5035106;28;20033;-66
2023/06/27 04:31:41;;;;;;;2.35;1.25;;;;;;;15.73;100.00;90959.44;5034889;28;20111;-66
2023/06/27 04:34:08;;;;;;;1.02;1.02;;;;;;;15.81;100.00;90958.53;5034996;28;20025;-66
2023/06/27 04:36:36;;;;;;;1.30;1.20;;;;;;;15.80;100.00;90954.28;5034588;28;20021;-66
2023/06/27 04:39:05;;;;;;;1.63;1.52;;;;;;;15.88;100.00;90956.81;5035245;28;20119;-66
2023/06/27 04:41:31;;;;;;;1.58;1.48;;;;;;;15.91;100.00;90950.00;5034845;28;20111;-66
2023/06/27 04:43:58;;;;;;;1.80;1.65;;;;;;;15.95;100.00;90958.16;5034633;28;20053;-66
2023/06/27 04:46:28;;;;;;;1.38;1.30;;;;;;;15.97;100.00;90961.28;5034374;28;20466;-66
2023/06/27 04:48:57;;;;;;;2.85;1.45;;;;;;;16.05;100.00;90960.34;5034721;28;20100;-66
2023/06/27 04:51:24;;;;;;;1.35;1.25;;;;;;;16.17;100.00;90963.78;5034518;28;20026;-66
2023/06/27 04:53:49;;;;;;;1.80;1.58;;;;;;;16.28;100.00;90964.09;5034537;28;20049;-66
2023/06/27 04:56:15;;;;;;;1.10;1.10;;;;;;;16.44;100.00;90962.22;5034326;28;20071;-66
2023/06/27 04:58:40;;;;;;;7.78;3.17;;;;;;;16.46;100.00;90961.88;5034493;28;20028;-66
2023/06/27 05:01:06;;;;;;;5.88;4.10;;;;;;;16.51;100.00;90967.00;5034207;28;20475;-66
2023/06/27 05:03:31;;;;;;;3.97;2.63;;;;;;;16.59;100.00;90965.28;5034188;28;20029;-66
2023/06/27 05:05:56;;;;;;;2.67;1.88;;;;;;;16.65;100.00;90955.84;5034185;28;20077;-66
2023/06/27 05:08:22;;;;;;;2.60;1.35;;;;;;;16.76;100.00;90957.72;5016309;28;20036;-66
2023/06/27 05:10:47;;;;;;;1.40;1.30;;;;;;;16.81;100.00;90958.59;5034028;28;20479;-66
2023/06/27 05:13:12;;;;;;;1.60;1.50;;;;;;;16.98;100.00;90969.00;5034441;28;20029;-66
2023/06/27 05:15:38;;;;;;;1.88;1.77;;;;;;;17.10;100.00;90960.88;5033901;28;20027;-66
2023/06/27 05:18:06;;;;;;;1.58;1.48;;;;;;;17.28;100.00;90967.44;5033897;28;20099;-66
2023/06/27 05:20:31;;;;;;;4.50;2.15;;;;;;;17.41;100.00;90972.72;5034055;28;20444;-66
2023/06/27 05:22:57;;;;;;;2.08;1.80;;;;;;;17.47;100.00;90971.31;5033852;28;20561;-66
2023/06/27 05:25:22;;;;;;;2.25;1.95;;;;;;;17.66;100.00;90966.78;5033812;28;20037;-66
2023/06/27 05:27:48;;;;;;;1.85;1.73;;;;;;;17.91;100.00;90964.66;5033758;28;20543;-66
2023/06/27 05:30:13;;;;;;;1.83;1.73;;;;;;;18.02;100.00;90956.84;5033932;28;20038;-66
2023/06/27 05:32:39;;;;;;;3.28;1.35;;;;;;;18.14;100.00;90961.28;5033792;28;20029;-66
2023/06/27 05:35:05;;;;;;;1.77;1.67;;;;;;;18.38;100.00;90961.03;5015459;28;20118;-66
2023/06/27 05:37:30;;;;;;;3.38;2.50;;;;;;;18.68;100.00;90955.84;5033790;28;20108;-66
2023/06/27 05:39:55;;;;;;;2.00;1.67;;;;;;;18.91;100.00;90958.56;5033383;28;20532;-66
2023/06/27 05:42:21;;;;;;;4.55;2.35;;;;;;;19.17;100.00;90965.94;5033425;28;20032;-66
2023/06/27 05:44:46;;;;;;;1.90;1.80;;;;;;;19.37;100.00;90967.44;5033107;28;20489;-67
2023/06/27 05:47:13;;;;;;;5.85;1.75;;;;;;;19.41;100.00;90970.22;5033432;28;20026;-66
2023/06/27 05:49:38;;;;;;;2.40;2.28;;;;;;;19.80;100.00;90965.44;5033438;28;20034;-66
2023/06/27 05:52:04;;;;;;;2.00;1.90;;;;;;;21.98;100.00;90965.88;5033251;28;20502;-67
2023/06/27 05:54:29;;;;;;;1.55;1.27;;;;;;;26.11;100.00;90968.28;5033332;28;20029;-67
2023/06/27 05:56:55;;;;;;;7.43;3.78;;;;;;;29.31;100.00;90969.16;5033472;28;20049;-67
2023/06/27 05:59:21;;;;;;;1.58;1.45;;;;;;;30.81;80.31;90971.19;5033085;28;20458;-67
2023/06/27 06:01:46;;;;;;;2.60;1.67;;;;;;;30.93;61.32;90973.22;5033133;28;20033;-67
2023/06/27 06:04:12;;;;;;;4.13;2.15;;;;;;;32.24;57.09;90973.34;5032877;28;20531;-67
2023/06/27 06:06:38;;;;;;;4.82;1.88;;;;;;;34.82;52.74;90972.63;5033400;28;20040;-67
2023/06/27 06:09:06;;;;;;;4.82;1.40;;;;;;;36.05;44.48;90977.97;5033314;28;20029;-67
2023/06/27 06:11:36;;;;;;;1.60;1.50;;;;;;;37.14;42.68;90988.53;5033199;28;20045;-68
2023/06/27 06:14:02;;;;;;;2.88;1.65;;;;;;;37.76;38.45;90982.22;5032919;28;20029;-68
2023/06/27 06:16:27;;;;;;;1.08;1.08;;;;;;;37.17;39.32;90979.25;5032695;28;20407;-68
2023/06/27 06:18:53;;;;;;;9.93;1.98;;;;;;;38.03;37.51;90986.72;5033065;28;20034;-68
2023/06/27 06:21:19;;;;;;;21.42;3.58;;;;;;;35.92;39.99;90980.94;5032928;28;20083;-67
2023/06/27 06:23:44;;;;;;;3.13;2.25;;;;;;;36.49;38.74;90979.06;5032707;28;20091;-68
2023/06/27 06:26:09;;;;;;;1.67;1.20;;;;;;;35.06;40.94;90978.38;5032496;28;20025;-67
2023/06/27 06:28:35;;;;;;;1.52;1.42;;;;;;;37.04;38.42;90977.97;5032967;28;20095;-68
2023/06/27 06:31:00;;;;;;;0.93;0.88;;;;;;;36.05;38.07;90972.44;5032752;28;20018;-68
2023/06/27 06:33:26;;;;;;;2.17;1.98;;;;;;;36.53;38.56;90976.88;5014816;28;20040;-68
2023/06/27 06:35:51;;;;;;;1.85;1.67;;;;;;;37.66;35.83;90980.72;5032415;28;20029;-68
2023/06/27 06:38:17;;;;;;;1.83;1.73;;;;;;;37.60;36.43;90976.31;5032699;28;20112;-68
2023/06/27 06:40:43;;;;;;;1.50;1.38;;;;;;;35.56;38.22;90976.22;5032364;28;20029;-68
2023/06/27 06:43:08;;;;;;;1.77;1.67;;;;;;;36.36;37.65;90978.50;5032408;28;20025;-68
2023/06/27 06:45:33;;;;;;;1.95;1.75;;;;;;;37.41;37.35;90972.94;5032111;28;20136;-67
2023/06/27 06:47:59;;;;;;;2.20;1.70;;;;;;;37.31;38.03;90968.72;5031781;28;20025;-71
2023/06/27 06:50:24;;;;;;;5.30;1.15;;;;;;;37.01;36.74;90965.81;5032306;28;20488;-70
2023/06/27 06:52:50;;;;;;;2.65;2.10;;;;;;;35.30;38.30;90976.50;5032546;28;20152;-70
2023/06/27 06:55:15;;;;;;;1.75;1.65;;;;;;;36.22;36.52;90974.38;5032705;28;20029;-70
2023/06/27 06:57:41;;;;;;;1.40;1.08;;;;;;;33.38;41.47;90975.84;5032393;28;20025;-68
2023/06/27 07:00:07;;;;;;;2.10;1.70;;;;;;;33.99;41.06;90966.09;5032090;28;20108;-68
2023/06/27 07:02:33;;;;;;;1.15;1.10;;;;;;;36.37;38.92;90957.88;5032372;28;20033;-71
2023/06/27 07:04:58;;;;;;;1.17;1.08;;;;;;;35.46;39.00;90955.31;5032200;28;20112;-69
2023/06/27 07:07:25;;;;;;;1.95;1.58;;;;;;;35.66;39.13;90966.66;5032238;28;20057;-69
2023/06/27 07:09:50;;;;;;;1.33;1.23;;;;;;;36.75;36.82;90961.94;5031993;28;20410;-69
2023/06/27 07:12:15;;;;;;;1.75;1.33;;;;;;;37.92;36.54;90980.19;5031938;28;20057;-69
2023/06/27 07:14:41;;;;;;;1.50;1.40;;;;;;;38.48;34.45;90970.75;5031776;28;20044;-69
2023/06/27 07:17:06;;;;;;;1.35;1.25;;;;;;;39.22;34.80;90976.13;5031897;28;20033;-69
2023/06/27 07:19:32;;;;;;;2.13;1.92;;;;;;;38.99;35.97;90968.75;5031990;28;20037;-69
2023/06/27 07:21:57;;;;;;;1.17;1.10;;;;;;;38.61;35.14;90973.22;5031827;28;20060;-69
2023/06/27 07:24:22;;;;;;;1.15;1.10;;;;;;;39.32;33.92;90973.97;5031697;28;20033;-69
2023/06/27 07:26:48;;;;;;;1.08;1.05;;;;;;;38.83;34.92;90965.25;5032255;28;20030;-69
2023/06/27 07:29:13;;;;;;;0.85;0.85;;;;;;;41.03;30.83;90969.72;5031994;28;20486;-69
2023/06/27 07:31:39;;;;;;;1.08;1.08;;;;;;;39.15;33.77;90971.00;5031820;28;20022;-69
2023/06/27 07:34:04;;;;;;;1.90;1.33;;;;;;;39.91;32.43;90954.88;5032020;28;20029;-69
2023/06/27 07:36:30;;;;;;;2.60;1.70;;;;;;;42.24;30.46;90958.69;5031561;28;20039;-69
2023/06/27 07:38:58;;;;;;;1.95;1.25;;;;;;;39.93;34.01;90955.16;5031707;28;20036;-69
2023/06/27 07:41:24;;;;;;;4.53;1.48;;;;;;;39.18;34.03;90953.31;5031913;28;20029;-69
2023/06/27 07:43:50;;;;;;;1.80;1.15;;;;;;;38.67;33.08;90954.66;5031851;28;20113;-69
2023/06/27 07:46:15;;;;;;;1.13;1.02;;;;;;;39.93;31.58;90948.81;5031210;28;20053;-69
2023/06/27 07:48:41;;;;;;;2.47;1.60;;;;;;;40.37;30.28;90957.56;5031894;28;20120;-69
2023/06/27 07:51:06;;;;;;;1.13;1.13;;;;;;;37.94;33.73;90944.38;5031642;28;20076;-69
2023/06/27 07:53:32;;;;;;;1.30;1.20;;;;;;;38.05;34.98;90950.88;5031550;28;20068;-69
2023/06/27 07:55:57;;;;;;;2.67;1.58;;;;;;;38.49;34.40;90943.72;5031514;28;20116;-69
2023/06/27 07:58:22;;;;;;;1.90;0.90;;;;;;;40.65;34.21;90952.22;5033573;28;20037;-69
2023/06/27 08:00:48;;;;;;;1.58;1.48;;;;;;;40.34;33.74;90960.59;5035641;28;20033;-69
2023/06/27 08:03:13;;;;;;;0.98;0.98;;;;;;;41.24;31.32;90957.16;5035550;28;20030;-69
2023/06/27 08:05:39;;;;;;;1.52;1.42;;;;;;;41.33;32.78;90960.97;5035161;28;20581;-69
2023/06/27 08:08:04;;;;;;;2.50;1.67;;;;;;;39.90;33.43;90961.69;5035461;28;20044;-67
2023/06/27 08:10:30;;;;;;;1.30;1.20;;;;;;;39.95;34.28;90952.63;5035173;28;20038;-67
2023/06/27 08:12:55;;;;;;;7.22;1.70;;;;;;;39.87;33.75;90945.97;5035126;28;20418;-67
2023/06/27 08:15:22;;;;;;;1.45;1.33;;;;;;;39.24;34.44;90954.91;5035222;28;20149;-67
2023/06/27 08:17:48;;;;;;;1.00;0.95;;;;;;;41.31;32.27;90960.72;5035343;28;20487;-67
2023/06/27 08:20:13;;;;;;;1.95;1.20;;;;;;;39.01;32.51;90953.09;5035053;28;20049;-67
2023/06/27 08:22:38;;;;;;;1.98;1.70;;;;;;;38.57;34.45;90958.78;5034925;28;20041;-67
2023/06/27 08:25:06;;;;;;;1.45;1.30;;;;;;;39.35;34.11;90950.72;5034908;28;20396;-67
2023/06/27 08:27:31;;;;;;;1.02;1.02;;;;;;;40.66;31.54;90958.56;5035114;28;20056;-67
2023/06/27 08:29:57;;;;;;;1.17;1.17;;;;;;;38.98;33.54;90958.84;5035237;28;20044;-67
2023/06/27 08:32:22;;;;;;;1.00;1.00;;;;;;;36.52;34.78;90953.16;5034746;28;20038;-66
2023/06/27 08:34:48;;;;;;;1.85;1.60;;;;;;;36.35;34.45;90948.50;5034514;28;20041;-67
2023/06/27 08:37:13;;;;;;;2.90;1.92;;;;;;;33.03;38.78;90942.78;5035208;28;20037;-66
2023/06/27 08:39:39;;;;;;;2.25;1.33;;;;;;;33.68;38.29;90945.97;5034876;28;20033;-66
2023/06/27 08:42:05;;;;;;;1.88;1.52;;;;;;;32.63;39.47;90941.78;5034587;28;20462;-68
2023/06/27 08:44:31;;;;;;;1.55;1.42;;;;;;;33.08;40.72;90948.94;5034754;28;20108;-69
2023/06/27 08:47:02;;;;;;;0.80;0.80;;;;;;;33.98;39.01;90945.22;5034361;28;20124;-69
2023/06/27 08:49:31;;;;;;;1.40;1.25;;;;;;;35.28;39.56;90933.94;5034435;28;20096;-69
2023/06/27 08:52:00;;;;;;;1.13;1.05;;;;;;;36.27;34.88;90936.94;5034375;28;20041;-69
2023/06/27 08:54:37;;;;;;;1.15;1.15;;;;;;;37.31;34.76;90943.72;5034496;28;20068;-70
2023/06/27 08:57:04;;;;;;;1.58;1.27;;;;;;;38.89;31.84;90943.06;5034313;28;20121;-67
2023/06/27 08:59:36;;;;;;;2.55;1.65;;;;;;;38.17;33.73;90946.25;5034216;28;20061;-67
2023/06/27 09:02:03;;;;;;;1.58;1.27;;;;;;;39.25;32.82;90936.19;5034279;28;20072;-67
2023/06/27 09:04:33;;;;;;;1.63;1.52;;;;;;;41.52;29.67;90939.75;5034108;28;20037;-67
2023/06/27 09:06:59;;;;;;;1.17;1.08;;;;;;;42.75;27.31;90943.44;5034342;28;20042;-67
2023/06/27 09:09:24;;;;;;;0.93;0.93;;;;;;;40.18;29.34;90930.56;5033658;28;20025;-67
2023/06/27 09:11:51;;;;;;;0.98;0.98;;;;;;;39.73;29.82;90936.47;5034141;28;20495;-67
2023/06/27 09:14:16;;;;;;;0.95;0.95;;;;;;;38.44;32.39;90936.09;5034106;28;20548;-67
2023/06/27 09:16:42;;;;;;;2.97;1.38;;;;;;;35.15;33.66;90933.34;5034019;28;20034;-67
2023/06/27 09:19:08;;;;;;;1.98;1.13;;;;;;;34.02;36.70;90929.28;5033974;28;20038;-66
2023/06/27 09:21:36;;;;;;;2.10;1.90;;;;;;;33.04;36.84;90929.75;5033877;28;20037;-66
2023/06/27 09:24:12;;;;;;;2.90;1.50;;;;;;;34.82;36.70;90928.41;5034022;28;20033;-67
2023/06/27 09:26:37;;;;;;;0.75;0.75;;;;;;;35.96;34.58;90926.91;5034111;28;20479;-67
2023/06/27 09:29:02;;;;;;;0.80;0.80;;;;;;;36.42;32.27;90926.72;5033929;28;20041;-67
2023/06/27 09:31:29;;;;;;;3.85;0.90;;;;;;;37.97;32.29;90938.63;5033731;28;20429;-67
2023/06/27 09:34:11;;;;;;;1.02;1.02;;;;;;;38.56;33.81;90935.00;5033810;28;20459;-67
2023/06/27 09:36:38;;;;;;;2.10;2.00;;;;;;;37.40;31.31;90938.09;5033563;28;20045;-67
2023/06/27 09:39:06;;;;;;;1.75;1.40;;;;;;;35.95;33.74;90932.91;5033515;28;20037;-68
2023/06/27 09:41:50;;;;;;;1.10;1.00;;;;;;;37.18;34.03;90936.41;5033510;28;20117;-68
2023/06/27 09:44:16;;;;;;;1.05;1.00;;;;;;;37.72;32.23;90937.19;5033268;28;20078;-68
2023/06/27 09:46:43;;;;;;;2.53;1.90;;;;;;;37.81;30.85;90935.56;5033289;28;20128;-68
2023/06/27 09:49:09;;;;;;;0.82;0.82;;;;;;;35.99;32.40;90928.78;5033148;28;20486;-68
2023/06/27 09:51:34;;;;;;;1.50;0.90;;;;;;;36.18;32.91;90934.22;5033103;28;20102;-68
2023/06/27 09:54:01;;;;;;;1.85;0.93;;;;;;;38.54;29.99;90937.50;5033159;28;20113;-68
2023/06/27 09:56:30;;;;;;;12.75;2.17;;;;;;;38.25;31.70;90936.31;5033236;28;20167;-68
2023/06/27 09:58:56;;;;;;;1.40;1.30;;;;;;;39.48;31.68;90929.63;5033206;28;20037;-68
2023/06/27 10:01:24;;;;;;;7.75;2.58;;;;;;;38.67;31.84;90932.41;5033443;28;20104;-68
2023/06/27 10:03:50;;;;;;;1.63;0.85;;;;;;;38.24;29.89;90928.47;5033207;28;20096;-68
2023/06/27 10:06:16;;;;;;;1.27;1.17;;;;;;;38.81;29.93;90930.81;5032939;28;20060;-68
2023/06/27 10:08:42;;;;;;;3.75;1.40;;;;;;;39.33;28.93;90931.72;5033035;28;20438;-68
2023/06/27 10:11:07;;;;;;;1.15;1.15;;;;;;;38.14;30.86;90927.00;5032906;28;20072;-68
2023/06/27 10:13:34;;;;;;;0.95;0.95;;;;;;;37.85;30.17;90925.03;5033141;28;20048;-68
2023/06/27 10:15:59;;;;;;;0.68;0.68;;;;;;;37.66;30.57;90925.19;5032683;28;20036;-68
2023/06/27 10:18:25;;;;;;;0.88;0.88;;;;;;;34.66;33.54;90923.94;5032973;28;20037;-67
2023/06/27 10:20:53;;;;;;;6.15;1.10;;;;;;;35.84;33.72;90916.81;5032037;28;20414;-67
2023/06/27 10:23:19;;;;;;;1.58;1.15;;;;;;;36.34;34.40;90910.94;5032760;28;20181;-67
2023/06/27 10:25:45;;;;;;;0.90;0.90;;;;;;;38.04;31.21;90918.03;5032769;28;20478;-67
2023/06/27 10:28:14;;;;;;;2.50;0.98;;;;;;;36.69;32.59;90908.41;5032536;28;20037;-68
2023/06/27 10:30:45;;;;;;;4.28;1.42;;;;;;;36.13;34.05;90909.91;5032630;28;20069;-67
2023/06/27 10:33:31;;;;;;;1.63;1.52;;;;;;;35.64;32.67;90906.22;5032457;28;20095;-67
2023/06/27 10:36:04;;;;;;;1.10;1.00;;;;;;;35.02;32.46;90903.84;5032664;28;20041;-68
2023/06/27 10:38:34;;;;;;;0.80;0.80;;;;;;;35.19;34.07;90907.09;5032384;28;20415;-68
2023/06/27 10:41:06;;;;;;;1.10;1.02;;;;;;;33.99;34.98;90908.09;5032450;28;20072;-67
2023/06/27 10:43:48;;;;;;;1.02;1.02;;;;;;;34.97;35.08;90903.72;5032484;28;20045;-68
2023/06/27 10:46:22;;;;;;;1.10;1.00;;;;;;;35.20;33.20;90903.09;5032085;28;20049;-68
2023/06/27 10:48:53;;;;;;;6.30;2.45;;;;;;;34.81;35.16;90905.53;5032576;28;20033;-67
2023/06/27 10:51:21;;;;;;;2.58;1.20;;;;;;;33.01;37.46;90897.59;5032530;28;20047;-68
2023/06/27 10:54:11;;;;;;;1.00;1.00;;;;;;;33.94;34.89;90897.69;5032135;28;20056;-68
2023/06/27 10:56:42;;;;;;;1.08;1.08;;;;;;;33.74;34.88;90895.25;5023026;28;20594;-68
2023/06/27 10:59:13;;;;;;;4.38;3.58;;;;;;;33.18;37.90;90898.16;5032044;28;20056;-67
2023/06/27 11:01:59;;;;;;;1.40;1.30;;;;;;;33.44;40.01;90894.03;5032105;28;20510;-67
2023/06/27 11:04:39;;;;;;;1.48;1.38;;;;;;;33.64;37.14;90894.47;5031795;28;20359;-68
2023/06/27 11:07:07;;;;;;;2.03;1.15;;;;;;;32.48;38.05;90889.94;5031899;28;20029;-67
2023/06/27 11:09:35;;;;;;;1.73;1.60;;;;;;;31.31;40.27;90893.66;5031930;28;20046;-67
2023/06/27 11:12:08;;;;;;;1.42;1.33;;;;;;;31.09;39.99;90882.50;5031832;28;20040;-67
2023/06/27 11:14:38;;;;;;;1.75;1.10;;;;;;;31.47;41.87;90879.03;5031715;28;20030;-67
2023/06/27 11:17:04;;;;;;;5.28;2.03;;;;;;;32.32;41.18;90872.81;5032031;28;20470;-67
2023/06/27 11:19:33;;;;;;;1.35;1.25;;;;;;;34.78;38.08;90875.28;5031865;28;20037;-67
2023/06/27 11:22:02;;;;;;;6.22;1.10;;;;;;;35.60;31.96;90880.72;5031844;28;20099;-67
2023/06/27 11:24:29;;;;;;;0.82;0.82;;;;;;;35.73;32.96;90877.75;5031646;28;20564;-67
2023/06/27 11:26:56;;;;;;;1.92;1.02;;;;;;;34.28;34.14;90891.16;5031783;28;20037;-67